Search for airport 
image banner adimage banner ad
image banner ad

SBNM - Santo Ângelo Airport

Located in Santo Ângelo, Brazil

ICAO - SBNM, IATA - GEL

Data provided by Airmate  

General information

Coordinates: S28°16'54" W54°10'6"
Elevation is 1056 feet MSL.
Magnetic variation is -16° East
View others Airports in Rio Grande do Sul

Operational data

Open for public use
Current time UTC:
Current local time:
Weather
METAR: SBNM 021400Z AUTO 34004KT 240V030 CAVOK 31/19 Q1009
View NOTAMs / SUP AIP / TFR affecting this airport [VIEW]
Communications frequencies: [VIEW]

Runways:

RWY identifierQFULength (ft)Width (ft)SurfaceLDA (ft)
11533198ASP
29533198ASP
12533198UNK
30533198UNK

Airport contact information

Address: Santo Ângelo Brazil

Satellite view of SBNM